Time;durP1;ratioP1;P1;durP2;ratioP2;P2;SDS_P1;SDS_P2;PMS_P1;PMS_P2;Temp;Humidity;BMP_temperature;BMP_pressure;BME280_temperature;BME280_humidity;BME280_pressure;Samples;Min_cycle;Max_cycle;Signal;HPM_P1;HPM_P2
2023/06/02 00:01:21;;;;;;;11.55;4.80;;;;;;;;;;5078224;28;20119;-74
2023/06/02 00:03:48;;;;;;;5.50;4.03;;;;;;;;;;5067784;28;20024;-75
2023/06/02 00:06:14;;;;;;;7.28;4.30;;;;;;;;;;5055669;28;20040;-74
2023/06/02 00:08:41;;;;;;;9.55;5.20;;;;;;;;;;5065990;28;20498;-74
2023/06/02 00:11:10;;;;;;;9.25;4.22;;;;;;;;;;5071804;28;20020;-74
2023/06/02 00:13:37;;;;;;;7.57;4.88;;;;;;;;;;5061574;28;20090;-73
2023/06/02 00:16:04;;;;;;;9.23;4.30;;;;;;;;;;5063762;28;20394;-74
2023/06/02 00:18:33;;;;;;;11.27;4.88;;;;;;;;;;5068878;28;20021;-74
2023/06/02 00:21:04;;;;;;;9.35;4.03;;;;;;;;;;5055313;28;20502;-74
2023/06/02 00:23:30;;;;;;;8.52;4.15;;;;;;;;;;5054647;28;20116;-74
2023/06/02 00:25:57;;;;;;;12.25;4.15;;;;;;;;;;5062368;28;20071;-74
2023/06/02 00:28:23;;;;;;;8.35;3.70;;;;;;;;;;5059539;28;20384;-73
2023/06/02 00:30:50;;;;;;;6.90;4.70;;;;;;;;;;5055107;28;20558;-73
2023/06/02 00:33:16;;;;;;;7.05;4.07;;;;;;;;;;5066195;28;20242;-74
2023/06/02 00:35:42;;;;;;;7.35;3.85;;;;;;;;;;5070521;28;20111;-74
2023/06/02 00:38:08;;;;;;;7.57;3.58;;;;;;;;;;5062994;28;20459;-75
2023/06/02 00:40:34;;;;;;;10.10;4.32;;;;;;;;;;5070107;28;20100;-74
2023/06/02 00:43:00;;;;;;;5.90;3.78;;;;;;;;;;5074635;28;20040;-75
2023/06/02 00:45:27;;;;;;;7.53;3.47;;;;;;;;;;5066365;28;20118;-74
2023/06/02 00:47:53;;;;;;;5.00;3.90;;;;;;;;;;5057093;28;20032;-74
2023/06/02 00:50:19;;;;;;;5.30;3.72;;;;;;;;;;5050550;28;20033;-74
2023/06/02 00:52:46;;;;;;;7.80;3.70;;;;;;;;;;5057036;28;20104;-74
2023/06/02 00:55:12;;;;;;;10.52;3.92;;;;;;;;;;5064914;28;20494;-74
2023/06/02 00:57:40;;;;;;;11.55;3.25;;;;;;;;;;5063711;28;20024;-74
2023/06/02 01:00:07;;;;;;;6.60;3.58;;;;;;;;;;5059272;28;20543;-74
2023/06/02 01:02:34;;;;;;;5.68;3.67;;;;;;;;;;5062720;28;20036;-74
2023/06/02 01:05:01;;;;;;;6.25;2.95;;;;;;;;;;5068540;28;20116;-74
2023/06/02 01:07:29;;;;;;;7.28;3.53;;;;;;;;;;5056253;28;20048;-73
2023/06/02 01:09:56;;;;;;;6.22;3.67;;;;;;;;;;5059263;28;20027;-74
2023/06/02 01:12:22;;;;;;;7.80;4.25;;;;;;;;;;5064599;28;20259;-73
2023/06/02 01:14:48;;;;;;;4.30;3.30;;;;;;;;;;5063333;28;20128;-74
2023/06/02 01:17:17;;;;;;;7.80;3.85;;;;;;;;;;5060174;28;20033;-75
2023/06/02 01:19:45;;;;;;;7.97;3.53;;;;;;;;;;5054367;28;20017;-74
2023/06/02 01:22:13;;;;;;;6.38;3.65;;;;;;;;;;5056509;28;20479;-74
2023/06/02 01:24:40;;;;;;;8.05;3.67;;;;;;;;;;5067817;28;20024;-74
2023/06/02 01:27:07;;;;;;;10.38;3.47;;;;;;;;;;5064016;28;20056;-74
2023/06/02 01:29:35;;;;;;;8.95;4.03;;;;;;;;;;5059391;28;20041;-74
2023/06/02 01:32:02;;;;;;;6.93;3.67;;;;;;;;;;5062926;28;20093;-75
2023/06/02 01:34:32;;;;;;;5.75;3.47;;;;;;;;;;5057702;28;20029;-75
2023/06/02 01:36:59;;;;;;;6.93;4.03;;;;;;;;;;5056757;28;20051;-74
2023/06/02 01:39:27;;;;;;;8.85;3.78;;;;;;;;;;5065008;28;20032;-74
2023/06/02 01:41:54;;;;;;;7.43;4.15;;;;;;;;;;5058274;28;20075;-74
2023/06/02 01:44:21;;;;;;;10.30;4.07;;;;;;;;;;5059622;28;20085;-74
2023/06/02 01:46:48;;;;;;;7.43;3.60;;;;;;;;;;5061177;28;20020;-74
2023/06/02 01:49:18;;;;;;;7.72;3.65;;;;;;;;;;5073294;28;20089;-74
2023/06/02 01:51:45;;;;;;;11.80;4.45;;;;;;;;;;5058679;28;20044;-76
2023/06/02 01:54:11;;;;;;;10.65;3.90;;;;;;;;;;5062895;28;20043;-74
2023/06/02 01:56:37;;;;;;;5.25;3.28;;;;;;;;;;5069418;28;20025;-74
2023/06/02 01:59:04;;;;;;;10.00;3.67;;;;;;;;;;5054471;28;20376;-74
2023/06/02 02:01:30;;;;;;;6.05;3.83;;;;;;;;;;5062158;28;20027;-73
2023/06/02 02:03:57;;;;;;;8.35;4.68;;;;;;;;;;5064159;28;20376;-74
2023/06/02 02:06:29;;;;;;;7.00;3.28;;;;;;;;;;5065474;28;20036;-74
2023/06/02 02:08:59;;;;;;;9.05;4.18;;;;;;;;;;5067079;28;20035;-74
2023/06/02 02:11:28;;;;;;;9.95;3.97;;;;;;;;;;5056789;28;20033;-74
2023/06/02 02:13:55;;;;;;;7.65;3.78;;;;;;;;;;5061866;28;20021;-74
2023/06/02 02:16:21;;;;;;;6.40;3.53;;;;;;;;;;5058212;28;20078;-74
2023/06/02 02:18:47;;;;;;;10.43;3.83;;;;;;;;;;5057737;28;20025;-74
2023/06/02 02:21:13;;;;;;;4.88;3.60;;;;;;;;;;5071303;28;20320;-74
2023/06/02 02:23:41;;;;;;;6.40;3.78;;;;;;;;;;5058958;28;20024;-74
2023/06/02 02:26:08;;;;;;;6.95;4.43;;;;;;;;;;5076650;28;20032;-74
2023/06/02 02:28:35;;;;;;;8.57;4.28;;;;;;;;;;5064336;28;20470;-74
2023/06/02 02:31:01;;;;;;;6.82;3.67;;;;;;;;;;5073171;28;20118;-74
2023/06/02 02:33:27;;;;;;;5.95;3.90;;;;;;;;;;5059430;28;20084;-75
2023/06/02 02:35:54;;;;;;;5.93;3.75;;;;;;;;;;5068101;28;20032;-74
2023/06/02 02:38:20;;;;;;;10.02;4.07;;;;;;;;;;5049923;28;20108;-74
2023/06/02 02:40:46;;;;;;;4.60;3.53;;;;;;;;;;5070660;28;20052;-74
2023/06/02 02:43:15;;;;;;;12.10;4.25;;;;;;;;;;5062191;28;20036;-75
2023/06/02 02:45:42;;;;;;;10.38;3.83;;;;;;;;;;5062417;28;20020;-74
2023/06/02 02:48:08;;;;;;;7.78;3.58;;;;;;;;;;5059868;28;20036;-74
2023/06/02 02:50:34;;;;;;;7.07;3.38;;;;;;;;;;5065250;28;20025;-74
2023/06/02 02:53:01;;;;;;;6.43;3.63;;;;;;;;;;5055325;28;20078;-75
2023/06/02 02:55:27;;;;;;;9.32;4.50;;;;;;;;;;5056807;28;20025;-74
2023/06/02 02:57:53;;;;;;;7.32;3.80;;;;;;;;;;5060807;28;20040;-74
2023/06/02 03:00:20;;;;;;;8.93;3.97;;;;;;;;;;5050670;28;20032;-74
2023/06/02 03:02:47;;;;;;;8.25;3.25;;;;;;;;;;5064532;28;20535;-75
2023/06/02 03:05:13;;;;;;;8.02;4.00;;;;;;;;;;5053317;28;20040;-75
2023/06/02 03:07:39;;;;;;;8.07;3.67;;;;;;;;;;5056113;28;20032;-74
2023/06/02 03:10:06;;;;;;;6.07;3.63;;;;;;;;;;5053308;28;20417;-74
2023/06/02 03:12:32;;;;;;;11.70;3.92;;;;;;;;;;5060446;28;20028;-74
2023/06/02 03:14:59;;;;;;;12.45;4.22;;;;;;;;;;5059111;28;20089;-74
2023/06/02 03:17:27;;;;;;;11.70;3.83;;;;;;;;;;5057261;28;20137;-73
2023/06/02 03:19:55;;;;;;;6.03;3.10;;;;;;;;;;5058701;28;20031;-74
2023/06/02 03:22:21;;;;;;;9.10;4.10;;;;;;;;;;5068136;28;20035;-73
2023/06/02 03:24:55;;;;;;;8.73;4.30;;;;;;;;;;5049831;28;20105;-74
2023/06/02 03:27:21;;;;;;;7.13;4.10;;;;;;;;;;5061761;28;20413;-73
2023/06/02 03:29:47;;;;;;;10.55;3.75;;;;;;;;;;5068563;28;20041;-74
2023/06/02 03:32:14;;;;;;;8.13;4.47;;;;;;;;;;5061742;28;20031;-73
2023/06/02 03:34:40;;;;;;;8.18;4.15;;;;;;;;;;5062197;28;20552;-74
2023/06/02 03:37:07;;;;;;;5.80;3.58;;;;;;;;;;5061791;28;20021;-74
2023/06/02 03:39:33;;;;;;;8.55;4.18;;;;;;;;;;5069324;28;20103;-74
2023/06/02 03:41:59;;;;;;;10.65;4.18;;;;;;;;;;5053809;28;20031;-74
2023/06/02 03:44:25;;;;;;;11.43;4.50;;;;;;;;;;5072455;28;20755;-74
2023/06/02 03:46:52;;;;;;;10.10;4.05;;;;;;;;;;5074932;28;20037;-74
2023/06/02 03:49:18;;;;;;;8.70;4.63;;;;;;;;;;5056689;28;20229;-74
2023/06/02 03:51:46;;;;;;;6.22;3.97;;;;;;;;;;5061324;28;20281;-74
2023/06/02 03:54:12;;;;;;;9.30;3.80;;;;;;;;;;5062569;28;20824;-74
2023/06/02 03:56:39;;;;;;;9.13;3.60;;;;;;;;;;5061084;28;20034;-75
2023/06/02 03:59:05;;;;;;;8.63;3.45;;;;;;;;;;5061727;28;20024;-73
2023/06/02 04:01:32;;;;;;;5.38;3.58;;;;;;;;;;5061318;28;20021;-74
2023/06/02 04:03:58;;;;;;;7.97;4.10;;;;;;;;;;5053826;28;20163;-73
2023/06/02 04:06:25;;;;;;;8.57;3.70;;;;;;;;;;5056820;28;20029;-74
2023/06/02 04:08:52;;;;;;;6.20;4.15;;;;;;;;;;5062227;28;20099;-75
2023/06/02 04:11:22;;;;;;;12.07;4.40;;;;;;;;;;5059170;28;20036;-72
2023/06/02 04:13:48;;;;;;;8.65;3.83;;;;;;;;;;5054689;28;20033;-73
2023/06/02 04:16:15;;;;;;;6.57;3.60;;;;;;;;;;5056398;28;20517;-74
2023/06/02 04:18:41;;;;;;;9.82;3.90;;;;;;;;;;5053452;28;20100;-74
2023/06/02 04:21:10;;;;;;;12.20;4.63;;;;;;;;;;5064241;28;20029;-74
2023/06/02 04:23:36;;;;;;;10.63;4.03;;;;;;;;;;5065986;28;20049;-74
2023/06/02 04:26:02;;;;;;;10.10;4.13;;;;;;;;;;5055962;28;20256;-73
2023/06/02 04:28:29;;;;;;;7.32;5.10;;;;;;;;;;5067607;28;20035;-73
2023/06/02 04:30:56;;;;;;;9.63;4.55;;;;;;;;;;5060277;28;20045;-74
2023/06/02 04:33:23;;;;;;;9.98;3.40;;;;;;;;;;5055347;28;20052;-74
2023/06/02 04:35:49;;;;;;;10.63;4.25;;;;;;;;;;5060870;28;20041;-76
2023/06/02 04:38:16;;;;;;;12.63;4.55;;;;;;;;;;5066216;28;20036;-75
2023/06/02 04:40:42;;;;;;;6.70;3.85;;;;;;;;;;5064596;28;20063;-74
2023/06/02 04:43:09;;;;;;;6.22;3.85;;;;;;;;;;5052995;28;20498;-75
2023/06/02 04:45:36;;;;;;;7.18;4.45;;;;;;;;;;5061165;28;20116;-74
2023/06/02 04:48:02;;;;;;;8.32;5.22;;;;;;;;;;5063613;28;20151;-74
2023/06/02 04:50:28;;;;;;;8.80;3.97;;;;;;;;;;5063983;28;20024;-73
2023/06/02 04:52:55;;;;;;;10.15;4.78;;;;;;;;;;5059573;28;20033;-73
2023/06/02 04:55:21;;;;;;;7.38;3.80;;;;;;;;;;5057514;28;20032;-73
2023/06/02 04:57:48;;;;;;;6.50;4.18;;;;;;;;;;5063187;28;21073;-75
2023/06/02 05:00:14;;;;;;;14.07;3.90;;;;;;;;;;5062621;28;20044;-73
2023/06/02 05:02:41;;;;;;;12.90;5.45;;;;;;;;;;5061093;28;20024;-74
2023/06/02 05:05:07;;;;;;;11.27;4.43;;;;;;;;;;5070497;28;20394;-74
2023/06/02 05:07:33;;;;;;;12.75;4.22;;;;;;;;;;5060192;28;20494;-74
2023/06/02 05:10:00;;;;;;;11.70;4.55;;;;;;;;;;5061229;28;20039;-74
2023/06/02 05:12:26;;;;;;;7.63;3.70;;;;;;;;;;5065387;28;20148;-74
2023/06/02 05:14:53;;;;;;;6.82;3.80;;;;;;;;;;5057218;28;20044;-74
2023/06/02 05:17:23;;;;;;;8.93;3.80;;;;;;;;;;5061306;28;20259;-74
2023/06/02 05:19:53;;;;;;;7.47;3.90;;;;;;;;;;5059023;28;20025;-74
2023/06/02 05:22:20;;;;;;;10.27;4.47;;;;;;;;;;5057001;28;20036;-74
2023/06/02 05:24:46;;;;;;;8.75;3.70;;;;;;;;;;5060124;28;20506;-75
2023/06/02 05:27:12;;;;;;;8.15;3.58;;;;;;;;;;5058058;28;20100;-74
2023/06/02 05:29:38;;;;;;;8.00;3.78;;;;;;;;;;5058235;28;20526;-75
2023/06/02 05:32:06;;;;;;;8.65;4.35;;;;;;;;;;5062140;28;20437;-74
2023/06/02 05:34:32;;;;;;;6.68;3.60;;;;;;;;;;5057500;28;20033;-74
2023/06/02 05:36:59;;;;;;;6.38;2.97;;;;;;;;;;5059427;28;21628;-74
2023/06/02 05:39:25;;;;;;;6.30;3.50;;;;;;;;;;5062899;28;20119;-74
2023/06/02 05:41:51;;;;;;;9.75;3.08;;;;;;;;;;5063590;28;20032;-74
2023/06/02 05:44:17;;;;;;;8.73;3.40;;;;;;;;;;5050004;28;20036;-74
2023/06/02 05:46:43;;;;;;;7.68;3.20;;;;;;;;;;5068673;28;20032;-74
2023/06/02 05:49:09;;;;;;;4.68;3.30;;;;;;;;;;5056488;28;20082;-74
2023/06/02 05:51:36;;;;;;;6.43;3.08;;;;;;;;;;5062945;28;20339;-74
2023/06/02 05:54:02;;;;;;;7.38;3.13;;;;;;;;;;5060992;28;20025;-74
2023/06/02 05:56:31;;;;;;;5.57;4.03;;;;;;;;;;5068038;28;20109;-74
2023/06/02 05:58:57;;;;;;;5.68;2.47;;;;;;;;;;5054366;28;20021;-74
2023/06/02 06:01:23;;;;;;;4.15;2.88;;;;;;;;;;5062669;28;20068;-74
2023/06/02 06:03:49;;;;;;;11.10;3.70;;;;;;;;;;5056662;28;20237;-74
2023/06/02 06:06:16;;;;;;;4.95;2.50;;;;;;;;;;5062901;28;20559;-74
2023/06/02 06:08:42;;;;;;;4.53;2.70;;;;;;;;;;5065412;28;20581;-74
2023/06/02 06:11:08;;;;;;;5.72;3.55;;;;;;;;;;5073786;28;20032;-74
2023/06/02 06:13:34;;;;;;;5.18;2.58;;;;;;;;;;5065333;28;20103;-74
2023/06/02 06:16:00;;;;;;;4.28;2.72;;;;;;;;;;5077742;28;20104;-74
2023/06/02 06:18:26;;;;;;;4.38;2.95;;;;;;;;;;5077849;28;20040;-74
2023/06/02 06:20:52;;;;;;;4.65;2.50;;;;;;;;;;5061455;28;20021;-74
2023/06/02 06:23:18;;;;;;;7.93;3.20;;;;;;;;;;5054691;28;20490;-74
2023/06/02 06:25:45;;;;;;;8.73;2.90;;;;;;;;;;5063383;28;20483;-74
2023/06/02 06:28:11;;;;;;;4.15;2.47;;;;;;;;;;5056769;28;20151;-74
2023/06/02 06:30:39;;;;;;;6.13;2.85;;;;;;;;;;5067445;28;20126;-73
2023/06/02 06:33:05;;;;;;;5.97;3.60;;;;;;;;;;5064562;28;20521;-73
2023/06/02 06:35:32;;;;;;;4.22;2.70;;;;;;;;;;5050513;28;20067;-74
2023/06/02 06:38:01;;;;;;;3.35;2.67;;;;;;;;;;5058860;28;20075;-75
2023/06/02 06:40:27;;;;;;;5.95;2.80;;;;;;;;;;5058983;28;20530;-75
2023/06/02 06:42:57;;;;;;;3.97;3.05;;;;;;;;;;5057483;28;20107;-73
2023/06/02 06:45:23;;;;;;;21.98;4.15;;;;;;;;;;5061193;28;20042;-74
2023/06/02 06:47:50;;;;;;;5.95;2.55;;;;;;;;;;5060859;28;20032;-74
2023/06/02 06:50:16;;;;;;;6.50;2.88;;;;;;;;;;5054216;28;20092;-75
2023/06/02 06:52:43;;;;;;;6.85;2.67;;;;;;;;;;5056276;28;20510;-74
2023/06/02 06:55:09;;;;;;;4.38;2.88;;;;;;;;;;5066988;28;20024;-73
2023/06/02 06:57:35;;;;;;;5.90;2.90;;;;;;;;;;5055655;28;20545;-74
2023/06/02 07:00:03;;;;;;;5.35;2.88;;;;;;;;;;5058243;28;20102;-74
2023/06/02 07:02:29;;;;;;;6.00;2.90;;;;;;;;;;5061279;28;20016;-75
2023/06/02 07:04:55;;;;;;;4.18;2.85;;;;;;;;;;5062571;28;20027;-74
2023/06/02 07:07:22;;;;;;;5.43;2.60;;;;;;;;;;5058559;28;20794;-74
2023/06/02 07:09:48;;;;;;;5.15;2.90;;;;;;;;;;5054170;28;20025;-74
2023/06/02 07:12:14;;;;;;;6.97;2.95;;;;;;;;;;5064676;28;20086;-74
2023/06/02 07:14:40;;;;;;;5.07;2.50;;;;;;;;;;5060859;28;20499;-75
2023/06/02 07:17:08;;;;;;;5.20;3.00;;;;;;;;;;5061888;28;20029;-75
2023/06/02 07:19:34;;;;;;;5.65;2.70;;;;;;;;;;5061601;28;20025;-74
2023/06/02 07:22:00;;;;;;;6.85;3.10;;;;;;;;;;5057186;28;20017;-74
2023/06/02 07:24:26;;;;;;;6.07;3.22;;;;;;;;;;5060999;28;20483;-75
2023/06/02 07:26:54;;;;;;;4.28;2.50;;;;;;;;;;5053832;28;20055;-74
2023/06/02 07:29:21;;;;;;;3.78;2.75;;;;;;;;;;5052021;28;20505;-74
2023/06/02 07:31:47;;;;;;;5.65;2.97;;;;;;;;;;5052999;28;20025;-74
2023/06/02 07:34:13;;;;;;;12.50;3.50;;;;;;;;;;5057177;28;20028;-74
2023/06/02 07:36:44;;;;;;;5.60;2.80;;;;;;;;;;5061633;28;20394;-73
2023/06/02 07:39:11;;;;;;;6.65;3.05;;;;;;;;;;5060730;28;20028;-74
2023/06/02 07:41:38;;;;;;;6.10;3.28;;;;;;;;;;5064321;28;20055;-74
2023/06/02 07:44:04;;;;;;;5.65;3.58;;;;;;;;;;5063171;28;20064;-73
2023/06/02 07:46:30;;;;;;;7.65;3.10;;;;;;;;;;5056339;28;20482;-74
2023/06/02 07:48:57;;;;;;;5.45;3.03;;;;;;;;;;5055598;28;20035;-74
2023/06/02 07:51:24;;;;;;;3.33;2.60;;;;;;;;;;5063335;28;20028;-75
2023/06/02 07:53:50;;;;;;;6.38;3.42;;;;;;;;;;5061680;28;20026;-74
2023/06/02 07:56:23;;;;;;;4.50;3.55;;;;;;;;;;5060616;28;20397;-74
2023/06/02 07:58:50;;;;;;;5.53;2.90;;;;;;;;;;5061951;28;20059;-74
2023/06/02 08:01:21;;;;;;;4.28;3.47;;;;;;;;;;5060864;28;20025;-73
2023/06/02 08:03:47;;;;;;;5.10;2.60;;;;;;;;;;5057073;28;20044;-75
2023/06/02 08:06:13;;;;;;;3.72;2.97;;;;;;;;;;5063225;28;20031;-74
2023/06/02 08:08:40;;;;;;;5.75;3.00;;;;;;;;;;5062622;28;20037;-74
2023/06/02 08:11:06;;;;;;;5.68;2.80;;;;;;;;;;5068587;28;20682;-75
2023/06/02 08:13:32;;;;;;;5.35;3.35;;;;;;;;;;5060629;28;20037;-75
2023/06/02 08:15:59;;;;;;;4.45;2.85;;;;;;;;;;5054001;28;20033;-75
2023/06/02 08:18:25;;;;;;;5.47;2.55;;;;;;;;;;5065276;28;20048;-75
2023/06/02 08:20:51;;;;;;;5.82;3.13;;;;;;;;;;5065300;28;20032;-73
2023/06/02 08:23:19;;;;;;;4.00;3.28;;;;;;;;;;5066018;28;20404;-74
2023/06/02 08:25:45;;;;;;;4.28;2.70;;;;;;;;;;5057083;28;20122;-74
2023/06/02 08:28:13;;;;;;;7.03;3.22;;;;;;;;;;5067812;28;20028;-73
2023/06/02 08:30:41;;;;;;;9.80;3.65;;;;;;;;;;5057716;28;20090;-72
2023/06/02 08:33:08;;;;;;;8.45;3.08;;;;;;;;;;5055510;28;20091;-73
2023/06/02 08:35:44;;;;;;;7.72;2.83;;;;;;;;;;5055741;28;20029;-73
2023/06/02 08:38:14;;;;;;;5.35;2.70;;;;;;;;;;5061002;28;20078;-72
2023/06/02 08:40:40;;;;;;;5.47;3.10;;;;;;;;;;5063585;28;20118;-74
2023/06/02 08:43:08;;;;;;;5.63;3.05;;;;;;;;;;5066441;28;20035;-74
2023/06/02 08:45:35;;;;;;;3.95;2.85;;;;;;;;;;5055554;28;20111;-75
2023/06/02 08:48:04;;;;;;;6.75;3.20;;;;;;;;;;5053153;28;20029;-73
2023/06/02 08:50:33;;;;;;;5.07;3.20;;;;;;;;;;5057474;28;20028;-73
2023/06/02 08:53:08;;;;;;;8.02;3.38;;;;;;;;;;5063314;28;20125;-73
2023/06/02 08:55:39;;;;;;;;;;;;;;;;;;5061045;28;20036;-73
2023/06/02 08:58:05;;;;;;;6.47;3.17;;;;;;;;;;5058833;28;19920;-74
2023/06/02 09:00:31;;;;;;;3.53;2.97;;;;;;;;;;5061707;28;20483;-72
2023/06/02 09:02:58;;;;;;;4.35;2.70;;;;;;;;;;5063327;28;20028;-73
2023/06/02 09:05:25;;;;;;;5.00;2.80;;;;;;;;;;5062159;28;20537;-73
2023/06/02 09:08:06;;;;;;;9.00;3.20;;;;;;;;;;5064405;28;21892;-73
2023/06/02 09:10:33;;;;;;;5.00;3.10;;;;;;;;;;5060440;28;20664;-73
2023/06/02 09:13:02;;;;;;;3.42;2.80;;;;;;;;;;5060681;28;20500;-73
2023/06/02 09:15:28;;;;;;;5.35;2.88;;;;;;;;;;5059884;28;20289;-75
2023/06/02 09:18:08;;;;;;;6.63;2.80;;;;;;;;;;5061873;28;21237;-74
2023/06/02 09:20:37;;;;;;;5.28;2.90;;;;;;;;;;5054940;28;20035;-74
2023/06/02 09:23:04;;;;;;;4.38;2.72;;;;;;;;;;5059376;28;20025;-74
2023/06/02 09:25:30;;;;;;;3.47;3.08;;;;;;;;;;5060242;28;20028;-74
2023/06/02 09:27:57;;;;;;;2.95;2.70;;;;;;;;;;5058003;28;20075;-75
2023/06/02 09:30:23;;;;;;;6.25;2.88;;;;;;;;;;5059536;28;20095;-75
2023/06/02 09:32:53;;;;;;;5.75;2.90;;;;;;;;;;5061880;28;20036;-75
2023/06/02 09:35:40;;;;;;;5.03;2.47;;;;;;;;;;5055152;28;20029;-74
2023/06/02 09:38:11;;;;;;;3.85;2.90;;;;;;;;;;5054512;28;20487;-75
2023/06/02 09:40:40;;;;;;;4.80;2.70;;;;;;;;;;5061961;28;20438;-74
2023/06/02 09:43:10;;;;;;;5.70;3.00;;;;;;;;;;5045090;28;20085;-75
2023/06/02 09:45:48;;;;;;;5.30;2.85;;;;;;;;;;5059954;28;20072;-75
2023/06/02 09:48:22;;;;;;;4.45;3.40;;;;;;;;;;5058667;28;20533;-74
2023/06/02 09:50:48;;;;;;;6.33;2.93;;;;;;;;;;5054829;28;20071;-75
2023/06/02 09:53:17;;;;;;;3.60;2.88;;;;;;;;;;5059615;28;20058;-74
2023/06/02 09:55:45;;;;;;;5.35;3.53;;;;;;;;;;5058940;28;20447;-74
2023/06/02 09:58:12;;;;;;;4.85;3.63;;;;;;;;;;5057182;28;20549;-75
2023/06/02 10:00:39;;;;;;;4.25;2.97;;;;;;;;;;5057172;28;20062;-75
2023/06/02 10:03:06;;;;;;;7.97;3.03;;;;;;;;;;5060314;28;20020;-75
2023/06/02 10:05:32;;;;;;;6.72;3.20;;;;;;;;;;5056217;28;20107;-76
2023/06/02 10:08:11;;;;;;;5.32;3.13;;;;;;;;;;5061139;28;20490;-75
2023/06/02 10:10:56;;;;;;;4.93;2.80;;;;;;;;;;5060359;28;20114;-74
2023/06/02 10:13:22;;;;;;;;;;;;;;;;;;5071020;28;20028;-76
2023/06/02 10:16:00;;;;;;;3.50;2.95;;;;;;;;;;5056282;28;20594;-76
2023/06/02 10:18:46;;;;;;;6.72;3.38;;;;;;;;;;5061996;28;20046;-75
2023/06/02 10:21:31;;;;;;;3.03;2.70;;;;;;;;;;5058662;28;20021;-75
2023/06/02 10:24:03;;;;;;;5.95;2.83;;;;;;;;;;5059774;28;20024;-75
2023/06/02 10:26:47;;;;;;;4.72;2.70;;;;;;;;;;5055873;28;20037;-74
2023/06/02 10:29:14;;;;;;;6.93;3.27;;;;;;;;;;5055582;28;20070;-75
2023/06/02 10:31:43;;;;;;;6.15;2.80;;;;;;;;;;5056935;28;20279;-75
2023/06/02 10:34:29;;;;;;;5.05;2.60;;;;;;;;;;5058731;28;20036;-74
2023/06/02 10:37:01;;;;;;;5.32;2.60;;;;;;;;;;5054693;28;20115;-75
2023/06/02 10:39:53;;;;;;;5.50;3.20;;;;;;;;;;5056952;28;20078;-74
2023/06/02 10:42:21;;;;;;;7.05;3.13;;;;;;;;;;5056544;28;20056;-73
2023/06/02 10:44:47;;;;;;;4.97;3.40;;;;;;;;;;5054287;28;20030;-74
2023/06/02 10:47:19;;;;;;;5.00;2.55;;;;;;;;;;5057984;28;20016;-75
2023/06/02 10:50:02;;;;;;;5.45;2.83;;;;;;;;;;5058212;28;20025;-74
2023/06/02 10:52:32;;;;;;;5.70;2.80;;;;;;;;;;5057279;28;20213;-75
2023/06/02 10:55:07;;;;;;;9.82;3.72;;;;;;;;;;5063920;28;20568;-75
2023/06/02 10:57:52;;;;;;;5.10;2.63;;;;;;;;;;5052678;28;20029;-75
2023/06/02 11:00:31;;;;;;;4.95;3.03;;;;;;;;;;5075701;28;20056;-75
2023/06/02 11:02:57;;;;;;;3.60;2.83;;;;;;;;;;5057851;28;20477;-75
2023/06/02 11:05:27;;;;;;;8.07;3.53;;;;;;;;;;5053093;28;20068;-75
2023/06/02 11:10:42;;;;;;;4.47;3.10;;;;;;;;;;5054079;28;20102;-75
2023/06/02 11:13:08;;;;;;;5.63;3.80;;;;;;;;;;5051984;28;20047;-76
2023/06/02 11:15:34;;;;;;;3.40;2.80;;;;;;;;;;5055502;28;20248;-76
2023/06/02 11:18:03;;;;;;;4.03;3.13;;;;;;;;;;5053972;28;20100;-75
2023/06/02 11:20:33;;;;;;;8.88;3.55;;;;;;;;;;5057379;28;20027;-76
2023/06/02 11:23:03;;;;;;;5.82;3.08;;;;;;;;;;5051365;28;20037;-76
2023/06/02 11:25:30;;;;;;;7.00;3.10;;;;;;;;;;5054971;28;20033;-76
2023/06/02 11:27:56;;;;;;;7.93;3.42;;;;;;;;;;5061361;28;20151;-75
2023/06/02 11:30:22;;;;;;;7.65;2.95;;;;;;;;;;5058294;28;20040;-76
2023/06/02 11:32:49;;;;;;;4.90;3.00;;;;;;;;;;5059443;28;20528;-76
2023/06/02 11:35:17;;;;;;;6.25;3.35;;;;;;;;;;5053224;28;20041;-75
2023/06/02 11:37:47;;;;;;;5.97;2.83;;;;;;;;;;5062473;28;20310;-75
2023/06/02 11:40:13;;;;;;;5.60;3.40;;;;;;;;;;5063266;28;20020;-75
2023/06/02 11:42:41;;;;;;;8.30;3.20;;;;;;;;;;5064428;28;21987;-75
2023/06/02 11:45:18;;;;;;;5.90;3.00;;;;;;;;;;5060706;28;20043;-76
2023/06/02 11:47:46;;;;;;;6.13;3.00;;;;;;;;;;5066441;28;20258;-76
2023/06/02 11:50:16;;;;;;;4.70;3.33;;;;;;;;;;5061891;28;20027;-75
2023/06/02 11:52:43;;;;;;;5.57;3.28;;;;;;;;;;5063462;28;20035;-75
2023/06/02 11:55:10;;;;;;;5.20;3.53;;;;;;;;;;5062353;28;20111;-75
2023/06/02 11:57:36;;;;;;;8.88;3.33;;;;;;;;;;5064079;28;20044;-75
2023/06/02 12:00:15;;;;;;;6.35;3.47;;;;;;;;;;5062755;28;20025;-75
2023/06/02 12:02:51;;;;;;;7.35;3.17;;;;;;;;;;5060021;28;20052;-75
2023/06/02 12:05:29;;;;;;;5.82;3.67;;;;;;;;;;5058948;28;20086;-74
2023/06/02 12:07:56;;;;;;;6.25;3.17;;;;;;;;;;5059356;28;20028;-75
2023/06/02 12:10:30;;;;;;;9.05;3.10;;;;;;;;;;5062335;28;20032;-75
2023/06/02 12:12:56;;;;;;;7.13;3.10;;;;;;;;;;5058053;28;20506;-75
2023/06/02 12:15:27;;;;;;;7.43;3.50;;;;;;;;;;5058792;28;20028;-75
2023/06/02 12:17:53;;;;;;;6.32;3.13;;;;;;;;;;5062692;28;20035;-75
2023/06/02 12:20:19;;;;;;;4.22;3.33;;;;;;;;;;5057667;28;20527;-75
2023/06/02 12:22:54;;;;;;;7.75;3.85;;;;;;;;;;5058207;28;20359;-75
2023/06/02 12:25:21;;;;;;;4.70;3.38;;;;;;;;;;5060967;28;20024;-75
2023/06/02 12:27:48;;;;;;;6.32;3.20;;;;;;;;;;5062231;28;20339;-75
2023/06/02 12:30:15;;;;;;;8.20;3.75;;;;;;;;;;5054545;28;20067;-74
2023/06/02 12:32:41;;;;;;;7.65;3.60;;;;;;;;;;5057886;28;20043;-75
2023/06/02 12:35:07;;;;;;;6.72;3.55;;;;;;;;;;5058561;28;20029;-73
2023/06/02 12:37:34;;;;;;;5.20;3.33;;;;;;;;;;5057614;28;20478;-74
2023/06/02 12:40:00;;;;;;;5.18;3.33;;;;;;;;;;5062038;28;20111;-75
2023/06/02 12:42:26;;;;;;;6.25;4.43;;;;;;;;;;5065779;28;20362;-75
2023/06/02 12:44:54;;;;;;;4.85;3.50;;;;;;;;;;5056593;28;20020;-74
2023/06/02 12:47:21;;;;;;;10.52;3.60;;;;;;;;;;5059982;28;20069;-74
2023/06/02 12:49:47;;;;;;;5.68;3.38;;;;;;;;;;5054500;28;20050;-74
2023/06/02 12:52:16;;;;;;;6.78;3.20;;;;;;;;;;5055830;28;20059;-75
2023/06/02 12:54:43;;;;;;;9.73;3.50;;;;;;;;;;5053754;28;20028;-74
2023/06/02 12:57:09;;;;;;;5.72;3.20;;;;;;;;;;5056079;28;20037;-75
2023/06/02 12:59:35;;;;;;;7.32;3.25;;;;;;;;;;5055721;28;20029;-75
2023/06/02 13:02:02;;;;;;;5.57;3.28;;;;;;;;;;5063758;28;20060;-73
2023/06/02 13:04:28;;;;;;;11.18;3.90;;;;;;;;;;5062281;28;20027;-75
2023/06/02 13:06:56;;;;;;;8.48;3.42;;;;;;;;;;5064656;28;20025;-75
2023/06/02 13:09:22;;;;;;;6.13;3.38;;;;;;;;;;5055982;28;20028;-74
2023/06/02 13:11:48;;;;;;;6.68;3.50;;;;;;;;;;5067507;28;20029;-75
2023/06/02 13:14:15;;;;;;;5.80;3.78;;;;;;;;;;5058642;28;20032;-74
2023/06/02 13:16:41;;;;;;;5.63;3.65;;;;;;;;;;5059396;28;20119;-75
2023/06/02 13:19:07;;;;;;;9.73;3.97;;;;;;;;;;5073466;28;20304;-75
2023/06/02 13:21:34;;;;;;;7.18;3.90;;;;;;;;;;5062359;28;20357;-75
2023/06/02 13:24:00;;;;;;;8.50;3.60;;;;;;;;;;5058791;28;20020;-75
2023/06/02 13:26:27;;;;;;;6.07;3.35;;;;;;;;;;5062285;28;20029;-75
2023/06/02 13:28:53;;;;;;;5.35;3.40;;;;;;;;;;5058860;28;20058;-73
2023/06/02 13:31:20;;;;;;;6.22;3.20;;;;;;;;;;5065621;28;20048;-75
2023/06/02 13:33:46;;;;;;;9.18;3.53;;;;;;;;;;5065300;28;20028;-75
2023/06/02 13:36:13;;;;;;;4.35;3.08;;;;;;;;;;5059581;28;20058;-74
2023/06/02 13:38:40;;;;;;;6.28;3.95;;;;;;;;;;5061776;28;20054;-73
2023/06/02 13:41:06;;;;;;;5.15;3.08;;;;;;;;;;5068543;28;20496;-73
2023/06/02 13:43:32;;;;;;;6.38;3.17;;;;;;;;;;5061220;28;20047;-73
2023/06/02 13:45:58;;;;;;;4.63;3.33;;;;;;;;;;5054117;28;20032;-73
2023/06/02 13:48:24;;;;;;;5.93;3.00;;;;;;;;;;5060739;28;20046;-74
2023/06/02 13:50:50;;;;;;;5.85;3.00;;;;;;;;;;5060513;28;20358;-74
2023/06/02 13:53:16;;;;;;;3.60;2.80;;;;;;;;;;5061326;28;20024;-73
2023/06/02 13:55:42;;;;;;;6.82;3.20;;;;;;;;;;5059700;28;20711;-73
2023/06/02 13:58:08;;;;;;;3.75;2.55;;;;;;;;;;5053157;28;20024;-73
2023/06/02 14:00:36;;;;;;;6.30;2.97;;;;;;;;;;5071904;28;20024;-74
2023/06/02 14:03:02;;;;;;;4.55;3.10;;;;;;;;;;5056221;28;20033;-73
2023/06/02 14:05:29;;;;;;;4.60;2.50;;;;;;;;;;5059764;28;21367;-74
2023/06/02 14:07:55;;;;;;;8.38;2.95;;;;;;;;;;5057229;28;20048;-74
2023/06/02 14:10:22;;;;;;;7.32;3.30;;;;;;;;;;5065593;28;20037;-73
2023/06/02 14:12:48;;;;;;;6.00;2.70;;;;;;;;;;5063008;28;20133;-73
2023/06/02 14:15:14;;;;;;;7.88;3.50;;;;;;;;;;5058890;28;20024;-74
2023/06/02 14:17:40;;;;;;;5.32;2.60;;;;;;;;;;5060830;28;20031;-74
2023/06/02 14:20:07;;;;;;;6.85;2.78;;;;;;;;;;5058093;28;20082;-73
2023/06/02 14:22:36;;;;;;;6.38;3.20;;;;;;;;;;5075259;28;20029;-73
2023/06/02 14:25:02;;;;;;;5.80;3.38;;;;;;;;;;5059450;28;20272;-74
2023/06/02 14:27:28;;;;;;;4.72;2.55;;;;;;;;;;5059589;28;20059;-74
2023/06/02 14:29:54;;;;;;;3.45;2.53;;;;;;;;;;5063930;28;20048;-75
2023/06/02 14:32:20;;;;;;;3.22;2.38;;;;;;;;;;5064172;28;20028;-73
2023/06/02 14:34:46;;;;;;;3.50;2.40;;;;;;;;;;5061431;28;20029;-74
2023/06/02 14:37:13;;;;;;;5.50;2.60;;;;;;;;;;5058768;28;20367;-74
2023/06/02 14:39:39;;;;;;;7.00;2.80;;;;;;;;;;5056664;28;20033;-73
2023/06/02 14:42:05;;;;;;;7.18;2.75;;;;;;;;;;5058299;28;20025;-75
2023/06/02 14:44:31;;;;;;;5.72;3.10;;;;;;;;;;5060623;28;20241;-74
2023/06/02 14:46:57;;;;;;;5.80;2.72;;;;;;;;;;5056617;28;20037;-74
2023/06/02 14:49:23;;;;;;;4.32;2.75;;;;;;;;;;5060740;28;20032;-73